createdAt,value
2022-09-01T00:02:30.595Z,99.90
2022-09-01T00:05:36.245Z,99.90
2022-09-01T00:08:40.730Z,99.90
2022-09-01T00:11:50.741Z,99.90
2022-09-01T00:14:55.408Z,99.90
2022-09-01T00:18:00.104Z,99.90
2022-09-01T00:21:04.819Z,99.90
2022-09-01T00:24:10.372Z,99.90
2022-09-01T00:27:15.251Z,99.90
2022-09-01T00:30:20.115Z,99.90
2022-09-01T00:33:24.579Z,99.90
2022-09-01T00:36:29.336Z,99.90
2022-09-01T00:39:33.877Z,99.90
2022-09-01T00:42:39.893Z,99.90
2022-09-01T00:45:44.828Z,99.90
2022-09-01T00:48:55.880Z,99.90
2022-09-01T00:52:08.219Z,99.90
2022-09-01T00:55:17.449Z,99.90
2022-09-01T00:58:22.411Z,99.90
2022-09-01T01:01:27.307Z,99.90
2022-09-01T01:04:32.134Z,99.90
2022-09-01T01:07:43.279Z,99.90
2022-09-01T01:10:52.350Z,99.90
2022-09-01T01:14:12.106Z,99.90
2022-09-01T01:17:22.018Z,99.90
2022-09-01T01:20:48.590Z,99.90
2022-09-01T01:24:09.291Z,99.90
2022-09-01T01:27:14.506Z,99.90
2022-09-01T01:30:20.824Z,99.90
2022-09-01T01:33:31.734Z,99.90
2022-09-01T01:36:39.986Z,99.90
2022-09-01T01:39:49.090Z,99.90
2022-09-01T01:42:54.451Z,99.90
2022-09-01T01:46:02.580Z,99.90
2022-09-01T01:49:13.320Z,99.90
2022-09-01T01:52:20.711Z,99.90
2022-09-01T01:55:31.396Z,99.90
2022-09-01T01:58:40.515Z,99.90
2022-09-01T02:01:49.374Z,99.90
2022-09-01T02:04:55.015Z,99.90
2022-09-01T02:08:07.319Z,99.90
2022-09-01T02:11:13.592Z,99.90
2022-09-01T02:14:20.466Z,99.90
2022-09-01T02:17:25.527Z,99.90
2022-09-01T02:20:30.155Z,99.90
2022-09-01T02:23:35.712Z,99.90
2022-09-01T02:26:44.858Z,99.90
2022-09-01T02:29:51.180Z,99.90
2022-09-01T02:32:55.591Z,99.90
2022-09-01T02:36:10.264Z,99.90
2022-09-01T02:39:20.596Z,99.90
2022-09-01T02:42:29.186Z,99.90
2022-09-01T02:45:34.363Z,99.90
2022-09-01T02:48:42.750Z,99.90
2022-09-01T02:51:50.681Z,99.90
2022-09-01T02:54:55.556Z,99.90
2022-09-01T02:57:59.872Z,99.90
2022-09-01T03:01:05.907Z,99.90
2022-09-01T03:04:11.889Z,99.90
2022-09-01T03:07:18.326Z,99.90
2022-09-01T03:10:27.962Z,99.90
2022-09-01T03:13:32.999Z,99.90
2022-09-01T03:16:39.210Z,99.90
2022-09-01T03:19:45.259Z,99.90
2022-09-01T03:22:51.376Z,99.90
2022-09-01T03:25:58.994Z,99.90
2022-09-01T03:29:04.603Z,99.90
2022-09-01T03:32:09.102Z,99.90
2022-09-01T03:35:13.912Z,99.90
2022-09-01T03:38:23.077Z,99.90
2022-09-01T03:41:30.806Z,99.90
2022-09-01T03:44:40.129Z,99.90
2022-09-01T03:47:45.083Z,99.90
2022-09-01T03:50:50.110Z,99.90
2022-09-01T03:53:55.041Z,99.90
2022-09-01T03:57:00.569Z,99.90
2022-09-01T04:00:13.398Z,99.90
2022-09-01T04:03:28.426Z,99.90
2022-09-01T04:06:33.719Z,99.90
2022-09-01T04:09:38.398Z,99.90
2022-09-01T04:12:42.952Z,99.90
2022-09-01T04:15:47.704Z,99.90
2022-09-01T04:18:52.395Z,99.90
2022-09-01T04:22:00.459Z,99.90
2022-09-01T04:25:09.923Z,99.90
2022-09-01T04:28:22.924Z,99.90
2022-09-01T04:31:27.711Z,99.90
2022-09-01T04:34:37.829Z,99.90
2022-09-01T04:37:43.170Z,99.90
2022-09-01T04:40:49.341Z,99.90
2022-09-01T04:43:57.798Z,99.90
2022-09-01T04:47:03.183Z,99.90
2022-09-01T04:50:14.261Z,99.90
2022-09-01T04:53:21.843Z,99.90
2022-09-01T04:56:36.291Z,99.90
2022-09-01T04:59:51.749Z,99.90
2022-09-01T05:03:04.977Z,99.90
2022-09-01T05:06:33.482Z,99.90
2022-09-01T05:09:38.235Z,99.90
2022-09-01T05:12:52.360Z,99.90
2022-09-01T05:16:03.013Z,99.90
2022-09-01T05:19:14.551Z,99.90
2022-09-01T05:22:22.302Z,99.90
2022-09-01T05:25:41.964Z,99.90
2022-09-01T05:28:48.362Z,99.90
2022-09-01T05:31:52.765Z,99.90
2022-09-01T05:34:57.583Z,99.90
2022-09-01T05:38:02.519Z,99.90
2022-09-01T05:41:08.564Z,99.90
2022-09-01T05:44:14.125Z,99.90
2022-09-01T05:47:21.260Z,99.90
2022-09-01T05:50:28.278Z,99.90
2022-09-01T05:53:34.162Z,99.90
2022-09-01T05:56:43.615Z,99.90
2022-09-01T05:59:54.063Z,99.90
2022-09-01T06:03:04.700Z,99.90
2022-09-01T06:06:10.951Z,99.90
2022-09-01T06:09:23.379Z,99.90
2022-09-01T06:12:30.444Z,99.90
2022-09-01T06:15:36.807Z,99.90
2022-09-01T06:18:43.223Z,99.90
2022-09-01T06:21:48.966Z,99.90
2022-09-01T06:24:58.020Z,99.90
2022-09-01T06:28:08.591Z,99.90
2022-09-01T06:31:13.327Z,99.90
2022-09-01T06:34:19.618Z,99.90
2022-09-01T06:37:24.044Z,99.90
2022-09-01T06:40:32.384Z,99.90
2022-09-01T06:43:37.135Z,99.90
2022-09-01T06:46:42.243Z,99.90
2022-09-01T06:49:46.794Z,99.90
2022-09-01T06:56:42.860Z,99.90
2022-09-01T06:59:56.159Z,99.90
2022-09-01T07:03:03.230Z,99.90
2022-09-01T07:10:17.736Z,98.70
2022-09-01T07:13:27.371Z,98.50
2022-09-01T07:23:46.196Z,95.60
2022-09-01T07:26:52.248Z,95.70
2022-09-01T07:29:57.054Z,94.30
2022-09-01T07:36:27.274Z,93.20
2022-09-01T07:39:50.467Z,92.70
2022-09-01T07:43:34.524Z,91.60
2022-09-01T07:46:42.345Z,90.60
2022-09-01T07:50:12.507Z,90.00
2022-09-01T07:53:22.382Z,90.00
2022-09-01T07:56:26.651Z,86.60
2022-09-01T07:59:31.233Z,82.60
2022-09-01T08:02:44.264Z,82.40
2022-09-01T08:05:57.639Z,82.80
2022-09-01T08:09:03.271Z,80.80
2022-09-01T08:12:10.403Z,79.80
2022-09-01T08:18:50.153Z,78.00
2022-09-01T08:22:15.377Z,74.40
2022-09-01T08:25:36.799Z,75.10
2022-09-01T08:28:54.949Z,72.40
2022-09-01T08:32:08.260Z,71.60
2022-09-01T08:35:16.222Z,71.00
2022-09-01T08:38:20.856Z,70.00
2022-09-01T08:41:50.110Z,71.00
2022-09-01T08:45:09.791Z,70.70
2022-09-01T08:52:12.480Z,70.10
2022-09-01T08:55:35.224Z,68.40
2022-09-01T08:58:40.280Z,66.00
2022-09-01T09:02:43.854Z,66.10
2022-09-01T09:06:07.739Z,63.30
2022-09-01T09:09:12.138Z,62.10
2022-09-01T09:12:48.973Z,62.40
2022-09-01T09:16:14.040Z,60.30
2022-09-01T09:19:34.096Z,59.10
2022-09-01T09:22:41.022Z,58.90
2022-09-01T09:25:45.435Z,56.80
2022-09-01T09:28:50.635Z,57.60
2022-09-01T09:32:06.699Z,57.70
2022-09-01T09:35:24.010Z,56.30
2022-09-01T09:38:29.315Z,55.90
2022-09-01T09:41:34.269Z,55.00
2022-09-01T09:44:51.134Z,55.20
2022-09-01T09:47:57.262Z,54.50
2022-09-01T09:51:21.450Z,54.20
2022-09-01T09:54:28.679Z,56.60
2022-09-01T09:57:39.720Z,57.00
2022-09-01T10:01:06.472Z,57.30
2022-09-01T10:04:30.903Z,61.80
2022-09-01T10:07:37.638Z,59.90
2022-09-01T10:10:57.851Z,62.90
2022-09-01T10:14:23.637Z,61.20
2022-09-01T10:17:43.870Z,62.80
2022-09-01T10:21:08.362Z,60.60
2022-09-01T10:24:38.811Z,60.80
2022-09-01T10:27:47.732Z,59.60
2022-09-01T10:30:54.395Z,63.90
2022-09-01T10:34:01.621Z,65.00
2022-09-01T10:37:11.389Z,64.80
2022-09-01T10:40:30.977Z,63.90
2022-09-01T10:43:45.188Z,65.20
2022-09-01T10:46:51.598Z,65.60
2022-09-01T10:50:01.268Z,67.20
2022-09-01T10:53:07.406Z,67.90
2022-09-01T10:56:43.827Z,67.50
2022-09-01T10:59:56.055Z,67.20
2022-09-01T11:07:14.810Z,66.90
2022-09-01T11:10:32.526Z,69.10
2022-09-01T11:13:37.706Z,67.30
2022-09-01T11:16:47.258Z,68.50
2022-09-01T11:20:12.807Z,66.80
2022-09-01T11:23:25.311Z,70.30
2022-09-01T11:26:32.716Z,70.30
2022-09-01T11:29:57.933Z,69.40
2022-09-01T11:33:17.185Z,70.20
2022-09-01T11:36:48.303Z,69.20
2022-09-01T11:39:58.543Z,67.50
2022-09-01T11:43:16.837Z,67.40
2022-09-01T11:46:34.317Z,66.50
2022-09-01T11:50:00.856Z,64.60
2022-09-01T11:53:21.545Z,65.90
2022-09-01T11:56:28.276Z,66.30
2022-09-01T11:59:37.976Z,64.90
2022-09-01T12:02:51.128Z,65.90
2022-09-01T12:06:02.803Z,64.80
2022-09-01T12:09:07.324Z,63.40
2022-09-01T12:12:38.399Z,63.30
2022-09-01T12:16:06.919Z,62.20
2022-09-01T12:19:07.843Z,60.90
2022-09-01T12:22:18.723Z,61.40
2022-09-01T12:25:30.894Z,61.60
2022-09-01T12:28:39.193Z,64.50
2022-09-01T12:31:46.603Z,63.00
2022-09-01T12:35:09.250Z,64.90
2022-09-01T12:38:19.155Z,65.30
2022-09-01T12:41:39.547Z,63.60
2022-09-01T12:44:48.298Z,65.60
2022-09-01T12:47:52.704Z,64.60
2022-09-01T12:51:04.111Z,63.60
2022-09-01T12:54:09.551Z,62.70
2022-09-01T12:57:29.826Z,64.40
2022-09-01T13:00:36.764Z,64.50
2022-09-01T13:03:41.268Z,60.70
2022-09-01T13:06:45.551Z,60.40
2022-09-01T13:09:49.900Z,59.30
2022-09-01T13:12:57.963Z,59.40
2022-09-01T13:16:10.582Z,57.80
2022-09-01T13:19:21.888Z,57.30
2022-09-01T13:22:31.860Z,57.60
2022-09-01T13:25:36.327Z,57.80
2022-09-01T13:28:41.181Z,58.40
2022-09-01T13:35:12.831Z,58.60
2022-09-01T13:38:18.514Z,58.80
2022-09-01T13:41:23.066Z,59.40
2022-09-01T13:44:27.616Z,58.50
2022-09-01T13:47:34.371Z,60.00
2022-09-01T13:54:06.633Z,60.10
2022-09-01T13:57:11.991Z,59.40
2022-09-01T14:00:20.198Z,59.40
2022-09-01T14:03:24.859Z,59.30
2022-09-01T14:06:29.898Z,58.30
2022-09-01T14:09:35.456Z,59.10
2022-09-01T14:12:41.657Z,58.40
2022-09-01T14:15:47.311Z,59.80
2022-09-01T14:18:51.660Z,58.80
2022-09-01T14:21:57.084Z,59.70
2022-09-01T14:25:02.034Z,60.10
2022-09-01T14:28:06.686Z,61.70
2022-09-01T14:31:13.834Z,60.60
2022-09-01T14:34:19.020Z,61.70
2022-09-01T14:37:24.069Z,61.70
2022-09-01T14:40:29.387Z,61.40
2022-09-01T14:43:34.136Z,61.70
2022-09-01T14:46:39.699Z,62.80
2022-09-01T14:49:44.812Z,64.00
2022-09-01T14:52:52.873Z,64.40
2022-09-01T14:56:00.272Z,64.20
2022-09-01T14:59:05.144Z,64.90
2022-09-01T15:02:10.126Z,66.00
2022-09-01T15:05:15.919Z,66.30
2022-09-01T15:08:21.336Z,66.30
2022-09-01T15:11:25.859Z,65.20
2022-09-01T15:14:32.729Z,64.40
2022-09-01T15:17:37.512Z,62.80
2022-09-01T15:20:45.427Z,62.10
2022-09-01T15:23:50.943Z,61.80
2022-09-01T15:26:55.338Z,60.80
2022-09-01T15:29:59.685Z,61.90
2022-09-01T15:33:05.133Z,60.70
2022-09-01T15:36:14.538Z,60.90
2022-09-01T15:39:19.123Z,60.80
2022-09-01T15:42:24.217Z,62.40
2022-09-01T15:45:29.318Z,63.70
2022-09-01T15:48:34.015Z,63.10
2022-09-01T15:51:41.048Z,63.40
2022-09-01T15:54:45.299Z,63.30
2022-09-01T15:57:50.301Z,65.90
2022-09-01T16:00:57.045Z,65.00
2022-09-01T16:04:01.801Z,64.70
2022-09-01T16:07:06.367Z,64.30
2022-09-01T16:10:12.128Z,65.70
2022-09-01T16:13:17.616Z,63.40
2022-09-01T16:16:59.155Z,61.10
2022-09-01T16:20:22.986Z,61.70
2022-09-01T16:23:42.213Z,60.90
2022-09-01T16:26:48.414Z,59.40
2022-09-01T16:30:01.897Z,59.60
2022-09-01T16:33:19.795Z,60.50
2022-09-01T16:36:29.950Z,62.10
2022-09-01T16:39:51.146Z,62.00
2022-09-01T16:43:05.051Z,63.60
2022-09-01T16:46:12.243Z,65.20
2022-09-01T16:49:33.195Z,64.60
2022-09-01T16:52:47.598Z,69.10
2022-09-01T16:56:28.977Z,73.60
2022-09-01T16:59:45.370Z,78.50
2022-09-01T17:03:18.109Z,82.10
2022-09-01T17:06:36.500Z,85.40
2022-09-01T17:09:46.261Z,87.70
2022-09-01T17:12:55.921Z,89.80
2022-09-01T17:16:09.252Z,91.20
2022-09-01T17:19:18.791Z,93.50
2022-09-01T17:22:24.175Z,95.60
2022-09-01T17:25:33.646Z,98.40
2022-09-01T17:28:47.222Z,99.90
2022-09-01T17:31:58.029Z,99.90
2022-09-01T17:35:26.334Z,99.90
2022-09-01T17:38:36.122Z,99.90
2022-09-01T17:41:54.531Z,99.90
2022-09-01T17:45:12.914Z,99.90
2022-09-01T17:48:30.746Z,99.90
2022-09-01T17:51:38.065Z,99.90
2022-09-01T17:54:55.001Z,99.90
2022-09-01T17:58:08.831Z,99.90
2022-09-01T18:01:52.257Z,99.90
2022-09-01T18:05:02.917Z,99.90
2022-09-01T18:08:31.222Z,99.90
2022-09-01T18:11:43.628Z,99.90
2022-09-01T18:15:04.547Z,99.90
2022-09-01T18:18:24.015Z,99.90
2022-09-01T18:21:38.120Z,99.90
2022-09-01T18:24:54.363Z,99.90
2022-09-01T18:27:59.130Z,99.90
2022-09-01T18:31:19.648Z,99.90
2022-09-01T18:34:58.684Z,99.90
2022-09-01T18:38:30.224Z,99.90
2022-09-01T18:41:54.081Z,99.90
2022-09-01T18:45:09.867Z,99.90
2022-09-01T18:48:43.497Z,99.90
2022-09-01T18:52:04.909Z,99.90
2022-09-01T18:55:23.739Z,99.90
2022-09-01T18:59:06.195Z,99.90
2022-09-01T19:02:40.379Z,99.90
2022-09-01T19:06:03.409Z,99.90
2022-09-01T19:09:33.401Z,99.90
2022-09-01T19:12:55.889Z,99.90
2022-09-01T19:16:13.972Z,99.90
2022-09-01T19:19:48.095Z,99.90
2022-09-01T19:23:12.284Z,99.90
2022-09-01T19:26:25.020Z,99.90
2022-09-01T19:29:40.950Z,99.90
2022-09-01T19:32:45.941Z,99.90
2022-09-01T19:35:54.525Z,99.90
2022-09-01T19:38:59.637Z,99.90
2022-09-01T19:42:25.820Z,99.90
2022-09-01T19:46:13.443Z,99.90
2022-09-01T19:50:03.424Z,99.90
2022-09-01T19:53:20.655Z,99.90
2022-09-01T19:56:32.759Z,99.90
2022-09-01T19:59:48.124Z,99.90
2022-09-01T20:03:15.959Z,99.90
2022-09-01T20:06:33.849Z,99.90
2022-09-01T20:09:50.051Z,99.90
2022-09-01T20:13:29.123Z,99.90
2022-09-01T20:16:48.553Z,99.90
2022-09-01T20:20:13.863Z,99.90
2022-09-01T20:23:37.096Z,99.90
2022-09-01T20:26:50.708Z,99.90
2022-09-01T20:30:01.983Z,99.90
2022-09-01T20:33:09.273Z,99.90
2022-09-01T20:36:30.962Z,99.90
2022-09-01T20:40:04.343Z,99.90
2022-09-01T20:43:20.212Z,99.90
2022-09-01T20:46:26.419Z,99.90
2022-09-01T20:49:38.250Z,99.90
2022-09-01T20:52:55.729Z,99.90
2022-09-01T20:56:29.747Z,99.90
2022-09-01T20:59:47.782Z,99.90
2022-09-01T21:03:14.483Z,99.90
2022-09-01T21:06:21.905Z,99.90
2022-09-01T21:09:29.528Z,99.90
2022-09-01T21:12:42.038Z,99.90
2022-09-01T21:16:11.480Z,99.90
2022-09-01T21:19:33.175Z,99.90
2022-09-01T21:22:39.008Z,99.90
2022-09-01T21:25:49.461Z,99.90
2022-09-01T21:28:56.030Z,99.90
2022-09-01T21:32:01.067Z,99.90
2022-09-01T21:35:08.499Z,99.90
2022-09-01T21:38:12.880Z,99.90
2022-09-01T21:41:17.242Z,99.90
2022-09-01T21:44:21.974Z,99.90
2022-09-01T21:47:28.039Z,99.90
2022-09-01T21:50:32.921Z,99.90
2022-09-01T21:53:37.263Z,99.90
2022-09-01T21:56:41.764Z,99.90
2022-09-01T21:59:46.286Z,99.90
2022-09-01T22:02:51.405Z,99.90
2022-09-01T22:05:56.286Z,99.90
2022-09-01T22:09:20.827Z,99.90
2022-09-01T22:12:26.173Z,99.90
2022-09-01T22:15:31.743Z,99.90
2022-09-01T22:18:36.791Z,99.90
2022-09-01T22:21:41.845Z,99.90
2022-09-01T22:24:46.526Z,99.90
2022-09-01T22:27:51.140Z,99.90
2022-09-01T22:30:55.540Z,99.90
2022-09-01T22:34:00.517Z,99.90
2022-09-01T22:37:05.153Z,99.90
2022-09-01T22:40:10.482Z,99.90
2022-09-01T22:43:18.389Z,99.90
2022-09-01T22:46:23.143Z,99.90
2022-09-01T22:49:27.543Z,99.90
2022-09-01T22:52:31.977Z,99.90
2022-09-01T22:55:38.871Z,99.90
2022-09-01T22:58:43.769Z,99.90
2022-09-01T23:01:48.199Z,99.90
2022-09-01T23:04:52.827Z,99.90
2022-09-01T23:07:58.916Z,99.90
2022-09-01T23:11:03.802Z,99.90
2022-09-01T23:14:08.875Z,99.90
2022-09-01T23:17:13.159Z,99.90
2022-09-01T23:20:18.108Z,99.90
2022-09-01T23:23:22.570Z,99.90
2022-09-01T23:26:29.047Z,99.90
2022-09-01T23:29:33.715Z,99.90
2022-09-01T23:32:38.450Z,99.90
2022-09-01T23:35:44.928Z,99.90
2022-09-01T23:38:50.854Z,99.90
2022-09-01T23:41:55.377Z,99.90
2022-09-01T23:44:59.851Z,99.90
2022-09-01T23:48:04.318Z,99.90
2022-09-01T23:51:10.236Z,99.90
2022-09-01T23:54:15.518Z,99.90
2022-09-01T23:57:21.145Z,99.90
